메인 페이지
METAR-TAF:

METAR-TAF

공항 :

부르가스, 불가리아

위도: 42-29N, 경도: 027-29E, 고도: 16m

현재 날씨관측

예보는 13분 전, 13:30시(UTC)에 발표되었습니다.
북동9kt
온도 18°C
습도 59%
기압 1014 hPa
시정 10km 이상
고도 3000ft 상공 구름 조금, 타워링 적운.
고도 4900ft 상공 구름 많음

METAR: LBBG 291330Z 04009KT 9999 FEW030TCU BKN049 18/10 Q1014 TEMPO 5000 SHRA FEW030CB

시각: 16:43 (13:43 UTC)

예보

예보는 2 시간 43분 전, 11:00시(UTC)에 발표되었습니다.
예보 대상 시간: 29일 12시부터 30일 12시까지 (UTC)
10kt
시정 10km 이상
고도 3300ft 상공 구름 보통
고도 4500ft 상공 구름 보통
일시적
29일 12시부터 29일 18시까지 (UTC)
여러 방향의 바람 18kt
시정: 3000m
고도 2000ft 상공 구름 보통
고도 3000ft 상공 구름 보통, 적란운.
고도 4000ft 상공 구름 많음
뇌우, 비
전환 중
29일 19시부터 29일 21시까지 (UTC)
여러 방향의 바람 4kt
고도 4500ft 상공 구름 보통
일시적
30일 02시부터 30일 05시까지 (UTC)
시정: 3000m
고도 1000ft 상공 구름 보통
박무
전환 중
30일 06시부터 30일 08시까지 (UTC)
10kt
일시적
30일 09시부터 30일 12시까지 (UTC)
시정: 4000m
고도 3000ft 상공 구름 보통, 적란운.
고도 4000ft 상공 구름 많음
뇌우, 비

TAF: LBBG 291100Z 2912/3012 28010KT 9999 SCT033 SCT045 TEMPO 2912/2918 VRB18KT 3000 TSRA SCT020 SCT030CB BKN040 BECMG 2919/2921 VRB04KT SCT045 TEMPO 3002/3005 3000 BR SCT010 BECMG 3006/3008 26010KT TEMPO 3009/3012 4000 TSRA SCT030CB BKN040

4,000개 이상의 공항 관측 자료 및 예보 (METAR 및 TAF 보고).

지도상에서 검색 가능한 기상관측소가 노란 점과 빨간 점으로 표시되어 있습니다.

기상관측소 명을 보려면 표시 위로 마우스를 이동하세요.

날씨 관측과 예보를 보려면 클릭하세요.

지도 변경 : 확대하려면 엑스 표시가 있는 녹색 버튼, 축소하려면 빼기 표시가 있는 녹색 버튼, 다음 페이지의 지도를 보려면 녹색 화살표를 클릭하세요.


METAR-TAF: